Time,TemperatureF,DewpointF,PressureIn,WindDirection,WindDirectionDegrees,WindSpeedMPH,WindSpeedGustMPH,Humidity,HourlyPrecipIn,Conditions,Clouds,dailyrainin,SoftwareType,DateUTC
2013-08-06 00:04:00,68.2,67.9,28.69,NE,45,1.2,0.0,99,0.00,RA,,0.00,WeatherDisplay:10.37,2013-08-06 05:04:00,
2013-08-06 00:10:00,67.1,66.8,28.69,SW,225,2.3,2.3,99,0.00,,,0.00,WeatherDisplay:10.37,2013-08-06 05:10:00,
2013-08-06 00:15:00,66.7,66.5,28.70,West,270,2.3,2.3,99,0.00,,,0.00,WeatherDisplay:10.37,2013-08-06 05:15:00,
2013-08-06 00:20:00,66.4,66.1,28.70,NW,315,1.2,1.2,99,0.00,,,0.00,WeatherDisplay:10.37,2013-08-06 05:20:00,
2013-08-06 00:25:00,66.4,66.1,28.69,NW,315,1.2,0.0,99,0.00,,,0.00,WeatherDisplay:10.37,2013-08-06 05:25:00,
2013-08-06 00:30:00,66.0,65.7,28.69,SW,225,1.2,1.2,99,0.00,,,0.00,WeatherDisplay:10.37,2013-08-06 05:30:00,
2013-08-06 00:36:00,65.7,65.4,28.69,SW,225,3.5,3.5,99,0.00,,,0.00,WeatherDisplay:10.37,2013-08-06 05:36:00,
2013-08-06 00:41:00,65.3,65.0,28.69,SW,225,2.3,2.3,99,0.00,,,0.00,WeatherDisplay:10.37,2013-08-06 05:41:00,
2013-08-06 00:46:00,65.1,64.8,28.69,SE,135,1.2,0.0,99,0.00,,,0.00,WeatherDisplay:10.37,2013-08-06 05:46:00,
2013-08-06 00:51:00,64.8,64.5,28.69,SE,135,1.2,1.2,99,0.00,,,0.00,WeatherDisplay:10.37,2013-08-06 05:51:00,
2013-08-06 00:56:00,64.6,64.3,28.69,SE,135,1.2,0.0,99,0.00,,,0.00,WeatherDisplay:10.37,2013-08-06 05:56:00,
2013-08-06 01:01:00,64.4,64.1,28.69,SE,135,0.0,0.0,99,0.00,,,0.00,WeatherDisplay:10.37,2013-08-06 06:01:00,
2013-08-06 01:07:00,64.4,64.1,28.70,SE,135,0.0,0.0,99,0.00,,,0.00,WeatherDisplay:10.37,2013-08-06 06:07:00,
2013-08-06 01:12:00,64.2,63.9,28.70,SW,225,1.2,0.0,99,0.00,,,0.00,WeatherDisplay:10.37,2013-08-06 06:12:00,
2013-08-06 01:17:00,64.2,63.9,28.69,SW,225,0.0,0.0,99,0.00,,,0.00,WeatherDisplay:10.37,2013-08-06 06:17:00,
2013-08-06 01:22:00,64.2,63.9,28.69,NE,45,1.2,0.0,99,0.00,,,0.00,WeatherDisplay:10.37,2013-08-06 06:22:00,
2013-08-06 01:27:00,64.2,63.9,28.69,NE,45,1.2,0.0,99,0.00,,,0.00,WeatherDisplay:10.37,2013-08-06 06:27:00,
2013-08-06 01:33:00,64.2,63.9,28.70,South,180,2.3,2.3,99,0.00,,,0.00,WeatherDisplay:10.37,2013-08-06 06:33:00,
2013-08-06 01:38:00,63.9,63.6,28.70,SW,225,0.0,0.0,99,0.00,,,0.00,WeatherDisplay:10.37,2013-08-06 06:38:00,
2013-08-06 01:43:00,64.2,63.9,28.70,NW,315,1.2,0.0,99,0.00,,,0.00,WeatherDisplay:10.37,2013-08-06 06:43:00,
2013-08-06 01:48:00,64.6,64.3,28.71,NW,315,1.2,1.6,99,0.00,,,0.00,WeatherDisplay:10.37,2013-08-06 06:48:00,
2013-08-06 01:53:00,64.0,63.8,28.71,NE,45,1.2,1.2,99,0.00,,,0.00,WeatherDisplay:10.37,2013-08-06 06:53:00,
2013-08-06 01:58:00,64.0,63.8,28.70,NE,45,1.2,0.0,99,0.00,,,0.00,WeatherDisplay:10.37,2013-08-06 06:58:00,
2013-08-06 02:04:00,64.0,63.8,28.70,NE,45,0.0,0.0,99,0.00,,,0.00,WeatherDisplay:10.37,2013-08-06 07:04:00,
2013-08-06 02:09:00,63.7,63.4,28.70,North,0,1.2,1.2,99,0.00,,,0.00,WeatherDisplay:10.37,2013-08-06 07:09:00,
2013-08-06 02:14:00,63.5,63.2,28.70,NE,45,2.3,2.3,99,0.00,,,0.00,WeatherDisplay:10.37,2013-08-06 07:14:00,
2013-08-06 02:19:00,63.7,63.4,28.69,NE,45,3.5,3.5,99,0.00,,,0.00,WeatherDisplay:10.37,2013-08-06 07:19:00,
2013-08-06 02:24:00,63.9,63.6,28.69,NE,45,2.3,0.0,99,0.00,,,0.00,WeatherDisplay:10.37,2013-08-06 07:24:00,
2013-08-06 02:29:00,63.5,63.2,28.69,NE,45,1.2,1.6,99,0.00,,,0.00,WeatherDisplay:10.37,2013-08-06 07:29:00,
2013-08-06 02:35:00,64.4,64.1,28.69,NE,45,2.3,2.3,99,0.00,,,0.00,WeatherDisplay:10.37,2013-08-06 07:35:00,
2013-08-06 02:40:00,64.4,64.1,28.69,SW,225,1.2,1.2,99,0.00,,,0.00,WeatherDisplay:10.37,2013-08-06 07:40:00,
2013-08-06 02:45:00,63.7,63.4,28.68,SW,225,1.2,0.0,99,0.00,,,0.00,WeatherDisplay:10.37,2013-08-06 07:45:00,
2013-08-06 02:50:00,63.1,62.9,28.68,NW,315,1.2,1.2,99,0.00,,,0.00,WeatherDisplay:10.37,2013-08-06 07:50:00,
2013-08-06 02:55:00,63.0,62.7,28.68,NW,315,1.2,1.2,99,0.00,,,0.00,WeatherDisplay:10.37,2013-08-06 07:55:00,
2013-08-06 03:00:00,62.4,62.1,28.68,SW,225,1.2,1.2,99,0.00,,,0.00,WeatherDisplay:10.37,2013-08-06 08:00:00,
2013-08-06 03:05:00,62.4,62.1,28.68,SW,225,1.2,1.2,99,0.00,,,0.00,WeatherDisplay:10.37,2013-08-06 08:05:00,
2013-08-06 03:10:00,61.9,61.6,28.68,SW,225,1.2,1.2,99,0.00,,,0.00,WeatherDisplay:10.37,2013-08-06 08:10:00,
2013-08-06 03:16:00,61.7,61.4,28.68,West,270,1.2,0.0,99,0.00,,,0.00,WeatherDisplay:10.37,2013-08-06 08:16:00,
2013-08-06 03:21:00,61.5,61.2,28.68,SW,225,1.6,1.6,99,0.00,,,0.00,WeatherDisplay:10.37,2013-08-06 08:21:00,
2013-08-06 03:26:00,61.3,61.1,28.68,South,180,1.2,0.0,99,0.00,,,0.00,WeatherDisplay:10.37,2013-08-06 08:26:00,
2013-08-06 03:31:00,61.2,60.9,28.69,North,0,1.2,0.0,99,0.00,,,0.00,WeatherDisplay:10.37,2013-08-06 08:31:00,
2013-08-06 03:36:00,61.2,60.9,28.69,NW,315,1.2,0.0,99,0.00,,,0.00,WeatherDisplay:10.37,2013-08-06 08:36:00,
2013-08-06 03:41:00,61.2,60.9,28.69,North,0,1.2,0.0,99,0.00,,,0.00,WeatherDisplay:10.37,2013-08-06 08:41:00,
2013-08-06 03:46:00,61.3,61.1,28.70,NW,315,1.2,1.2,99,0.00,,,0.00,WeatherDisplay:10.37,2013-08-06 08:46:00,
2013-08-06 03:52:00,61.3,61.1,28.70,NW,315,0.0,0.0,99,0.00,,,0.00,WeatherDisplay:10.37,2013-08-06 08:52:00,
2013-08-06 03:57:00,61.5,61.2,28.70,NE,45,0.0,0.0,99,0.00,,,0.00,WeatherDisplay:10.37,2013-08-06 08:57:00,
2013-08-06 04:02:00,61.5,61.2,28.70,NE,45,1.2,0.0,99,0.00,,,0.00,WeatherDisplay:10.37,2013-08-06 09:02:00,
2013-08-06 04:07:00,61.5,61.2,28.69,NE,45,1.2,0.0,99,0.00,,,0.00,WeatherDisplay:10.37,2013-08-06 09:07:00,
2013-08-06 04:12:00,61.5,61.2,28.69,NE,45,1.2,0.0,99,0.00,,,0.00,WeatherDisplay:10.37,2013-08-06 09:12:00,
2013-08-06 04:18:00,61.3,61.1,28.69,NE,45,1.2,1.2,99,0.00,,,0.00,WeatherDisplay:10.37,2013-08-06 09:18:00,
2013-08-06 04:23:00,61.2,60.9,28.69,NE,45,1.2,0.0,99,0.00,,,0.00,WeatherDisplay:10.37,2013-08-06 09:23:00,
2013-08-06 04:28:00,61.0,60.7,28.68,NE,45,1.2,0.0,99,0.00,,,0.00,WeatherDisplay:10.37,2013-08-06 09:28:00,
2013-08-06 04:33:00,60.8,60.5,28.67,NE,45,0.0,0.0,99,0.00,,,0.00,WeatherDisplay:10.37,2013-08-06 09:33:00,
2013-08-06 04:38:00,61.0,60.7,28.67,SW,225,1.6,1.6,99,0.00,,,0.00,WeatherDisplay:10.37,2013-08-06 09:38:00,
2013-08-06 04:43:00,61.2,60.9,28.67,South,180,1.2,1.2,99,0.00,,,0.00,WeatherDisplay:10.37,2013-08-06 09:43:00,
2013-08-06 04:48:00,61.2,60.9,28.67,SW,225,1.2,0.0,99,0.00,,,0.00,WeatherDisplay:10.37,2013-08-06 09:48:00,
2013-08-06 04:53:00,61.2,60.9,28.67,SW,225,1.2,1.2,99,0.00,,,0.00,WeatherDisplay:10.37,2013-08-06 09:53:00,
2013-08-06 04:59:00,61.2,60.9,28.66,SW,225,1.2,0.0,99,0.00,,,0.00,WeatherDisplay:10.37,2013-08-06 09:59:00,
2013-08-06 05:04:00,61.2,60.9,28.65,SW,225,0.0,0.0,99,0.00,,,0.00,WeatherDisplay:10.37,2013-08-06 10:04:00,
2013-08-06 05:09:00,61.2,60.9,28.65,SW,225,0.0,0.0,99,0.00,,,0.00,WeatherDisplay:10.37,2013-08-06 10:09:00,
2013-08-06 05:14:00,61.3,61.1,28.66,SW,225,1.2,1.6,99,0.00,,,0.00,WeatherDisplay:10.37,2013-08-06 10:14:00,
2013-08-06 05:19:00,61.7,61.4,28.66,SW,225,2.3,2.3,99,0.00,,,0.00,WeatherDisplay:10.37,2013-08-06 10:19:00,
2013-08-06 05:24:00,61.9,61.6,28.65,South,180,1.2,0.0,99,0.00,,,0.00,WeatherDisplay:10.37,2013-08-06 10:24:00,
2013-08-06 05:29:00,61.9,61.6,28.65,SW,225,2.3,2.3,99,0.00,,,0.00,WeatherDisplay:10.37,2013-08-06 10:29:00,
2013-08-06 05:35:00,62.1,61.8,28.66,SW,225,2.3,2.3,99,0.00,,,0.00,WeatherDisplay:10.37,2013-08-06 10:35:00,
2013-08-06 05:40:00,62.2,62.0,28.66,SW,225,2.3,2.3,99,0.00,,,0.00,WeatherDisplay:10.37,2013-08-06 10:40:00,
2013-08-06 05:45:00,62.4,62.1,28.66,SW,225,2.3,2.3,99,0.00,,,0.00,WeatherDisplay:10.37,2013-08-06 10:45:00,
2013-08-06 05:50:00,62.4,62.1,28.66,West,270,2.3,0.0,99,0.00,,,0.00,WeatherDisplay:10.37,2013-08-06 10:50:00,
2013-08-06 05:55:00,62.4,62.1,28.66,West,270,0.0,0.0,99,0.00,,,0.00,WeatherDisplay:10.37,2013-08-06 10:55:00,
2013-08-06 06:01:00,62.4,62.1,28.67,SW,225,1.2,1.2,99,0.00,,,0.00,WeatherDisplay:10.37,2013-08-06 11:01:00,
2013-08-06 06:06:00,62.4,62.1,28.67,SW,225,1.2,1.2,99,0.00,,,0.00,WeatherDisplay:10.37,2013-08-06 11:06:00,
2013-08-06 06:11:00,62.6,62.3,28.67,South,180,2.3,2.3,99,0.00,,,0.00,WeatherDisplay:10.37,2013-08-06 11:11:00,
2013-08-06 06:16:00,62.8,62.5,28.68,NW,315,1.2,0.0,99,0.00,,,0.00,WeatherDisplay:10.37,2013-08-06 11:16:00,
2013-08-06 06:21:00,62.8,62.5,28.69,NW,315,2.3,2.3,99,0.00,,,0.00,WeatherDisplay:10.37,2013-08-06 11:21:00,
2013-08-06 06:26:00,62.8,62.5,28.69,South,180,1.2,1.6,99,0.00,,,0.00,WeatherDisplay:10.37,2013-08-06 11:26:00,
2013-08-06 06:32:00,63.0,62.7,28.71,South,180,3.5,3.5,99,0.00,,,0.00,WeatherDisplay:10.37,2013-08-06 11:32:00,
2013-08-06 06:37:00,63.1,62.9,28.71,SW,225,3.5,3.5,99,0.00,,,0.00,WeatherDisplay:10.37,2013-08-06 11:37:00,
2013-08-06 06:42:00,63.1,62.9,28.72,South,180,3.5,3.5,99,0.00,,,0.00,WeatherDisplay:10.37,2013-08-06 11:42:00,
2013-08-06 06:47:00,63.1,62.9,28.74,North,0,1.2,0.0,99,0.00,,,0.00,WeatherDisplay:10.37,2013-08-06 11:47:00,
2013-08-06 06:52:00,63.1,62.9,28.74,North,0,1.2,0.0,99,0.00,,,0.00,WeatherDisplay:10.37,2013-08-06 11:52:00,
2013-08-06 06:57:00,63.1,62.9,28.74,East,90,2.3,2.3,99,0.00,,,0.00,WeatherDisplay:10.37,2013-08-06 11:57:00,
2013-08-06 07:03:00,63.1,62.9,28.73,NE,45,3.5,3.5,99,0.00,,,0.00,WeatherDisplay:10.37,2013-08-06 12:03:00,
2013-08-06 07:08:00,63.1,62.9,28.73,NE,45,3.5,3.5,99,0.00,,,0.00,WeatherDisplay:10.37,2013-08-06 12:08:00,
2013-08-06 07:13:00,63.1,62.9,28.74,NW,315,2.3,0.0,99,0.00,,,0.00,WeatherDisplay:10.37,2013-08-06 12:13:00,
2013-08-06 07:18:00,63.1,62.9,28.74,South,180,1.2,1.2,99,0.00,,,0.00,WeatherDisplay:10.37,2013-08-06 12:18:00,
2013-08-06 07:23:00,63.3,63.0,28.73,NW,315,0.0,0.0,99,0.00,,,0.00,WeatherDisplay:10.37,2013-08-06 12:23:00,
2013-08-06 07:29:00,63.3,63.0,28.73,NE,45,0.0,0.0,99,0.00,,,0.00,WeatherDisplay:10.37,2013-08-06 12:29:00,
2013-08-06 07:34:00,63.3,63.0,28.73,NE,45,0.0,0.0,99,0.00,,,0.00,WeatherDisplay:10.37,2013-08-06 12:34:00,
2013-08-06 07:39:00,63.9,63.6,28.73,NW,315,1.2,0.0,99,0.01,RA,,0.01,WeatherDisplay:10.37,2013-08-06 12:39:00,
2013-08-06 07:45:00,64.0,63.8,28.73,NNW,337,0.0,2.0,99,0.00,RA,,0.01,WeatherDisplay:10.37,2013-08-06 12:45:00,
2013-08-06 07:50:00,64.2,63.9,28.72,NW,315,0.0,0.0,99,0.01,,,0.01,WeatherDisplay:10.37,2013-08-06 12:50:00,
2013-08-06 07:55:00,64.4,64.1,28.72,NW,315,0.0,0.0,99,0.01,,,0.01,WeatherDisplay:10.37,2013-08-06 12:55:00,
2013-08-06 08:00:00,64.8,64.5,28.72,NW,315,0.0,0.0,99,0.01,,,0.01,WeatherDisplay:10.37,2013-08-06 13:00:00,
2013-08-06 08:05:00,65.1,64.8,28.72,NE,45,0.0,0.0,99,0.01,,,0.01,WeatherDisplay:10.37,2013-08-06 13:05:00,
2013-08-06 08:10:00,65.7,65.4,28.70,SW,225,4.6,4.6,99,0.01,,,0.01,WeatherDisplay:10.37,2013-08-06 13:10:00,
2013-08-06 08:16:00,65.8,65.6,28.70,South,180,3.5,3.5,99,0.01,,,0.01,WeatherDisplay:10.37,2013-08-06 13:16:00,
2013-08-06 08:21:00,66.0,65.7,28.70,South,180,3.5,3.5,99,0.01,,,0.01,WeatherDisplay:10.37,2013-08-06 13:21:00,
2013-08-06 08:26:00,66.2,65.9,28.69,South,180,1.2,1.2,99,0.01,,,0.01,WeatherDisplay:10.37,2013-08-06 13:26:00,
2013-08-06 08:31:00,66.4,66.1,28.69,South,180,3.5,3.5,99,0.01,,,0.01,WeatherDisplay:10.37,2013-08-06 13:31:00,
2013-08-06 08:37:00,66.6,66.3,28.68,South,180,3.5,3.5,99,0.00,,,0.01,WeatherDisplay:10.37,2013-08-06 13:37:00,
2013-08-06 08:42:00,66.6,66.3,28.67,SSE,158,4.6,4.6,99,0.00,,,0.01,WeatherDisplay:10.37,2013-08-06 13:42:00,
2013-08-06 08:47:00,66.6,66.3,28.67,South,180,3.5,3.5,99,0.00,,,0.01,WeatherDisplay:10.37,2013-08-06 13:47:00,
2013-08-06 08:52:00,66.6,66.3,28.66,South,180,3.5,3.5,99,0.00,,,0.01,WeatherDisplay:10.37,2013-08-06 13:52:00,
2013-08-06 08:57:00,66.6,66.3,28.65,East,90,5.8,5.8,99,0.00,,,0.01,WeatherDisplay:10.37,2013-08-06 13:57:00,
2013-08-06 09:03:00,66.6,66.3,28.63,SSE,158,6.9,6.9,99,0.00,,,0.01,WeatherDisplay:10.37,2013-08-06 14:03:00,
2013-08-06 09:08:00,66.6,66.3,28.63,SE,135,6.9,6.9,99,0.00,,,0.01,WeatherDisplay:10.37,2013-08-06 14:08:00,
2013-08-06 09:14:00,66.9,66.6,28.61,SE,135,11.5,11.5,99,0.00,,,0.01,WeatherDisplay:10.37,2013-08-06 14:14:00,
2013-08-06 09:21:00,66.9,66.6,28.58,South,180,15.0,15.0,99,0.00,,,0.01,WeatherDisplay:10.37,2013-08-06 14:21:00,
2013-08-06 09:26:00,67.1,66.8,28.59,South,180,16.1,16.1,99,0.00,,,0.01,WeatherDisplay:10.37,2013-08-06 14:26:00,
2013-08-06 09:31:00,67.5,67.2,28.60,South,180,12.7,12.7,99,0.00,,,0.01,WeatherDisplay:10.37,2013-08-06 14:31:00,
2013-08-06 09:36:00,68.0,67.7,28.60,South,180,15.0,15.0,99,0.00,,,0.01,WeatherDisplay:10.37,2013-08-06 14:36:00,
2013-08-06 09:42:00,68.7,68.4,28.60,South,180,12.7,12.7,99,0.00,,,0.01,WeatherDisplay:10.37,2013-08-06 14:42:00,
2013-08-06 09:47:00,69.1,68.8,28.60,South,180,12.7,12.7,99,0.00,,,0.01,WeatherDisplay:10.37,2013-08-06 14:47:00,
2013-08-06 09:52:00,69.6,69.3,28.60,South,180,10.4,10.4,99,0.00,,,0.01,WeatherDisplay:10.37,2013-08-06 14:52:00,
2013-08-06 09:57:00,70.0,69.7,28.60,South,180,10.4,10.4,99,0.00,,,0.01,WeatherDisplay:10.37,2013-08-06 14:57:00,
2013-08-06 10:02:00,70.0,69.7,28.60,South,180,11.5,11.5,99,0.00,,,0.01,WeatherDisplay:10.37,2013-08-06 15:02:00,
2013-08-06 10:07:00,72.3,72.0,28.60,South,180,13.8,13.8,99,0.00,,,0.01,WeatherDisplay:10.37,2013-08-06 15:07:00,
2013-08-06 10:13:00,73.8,71.9,28.59,South,180,12.7,12.7,94,0.00,,,0.01,WeatherDisplay:10.37,2013-08-06 15:13:00,
2013-08-06 10:18:00,75.0,71.9,28.59,South,180,11.5,11.5,90,0.00,,,0.01,WeatherDisplay:10.37,2013-08-06 15:18:00,
2013-08-06 10:23:00,75.9,71.1,28.60,South,180,10.4,10.4,85,0.00,,,0.01,WeatherDisplay:10.37,2013-08-06 15:23:00,
2013-08-06 10:29:00,77.0,71.1,28.60,South,180,10.4,10.4,82,0.00,,,0.01,WeatherDisplay:10.37,2013-08-06 15:29:00,
2013-08-06 10:34:00,77.4,69.2,28.61,South,180,12.7,12.7,76,0.00,,,0.01,WeatherDisplay:10.37,2013-08-06 15:34:00,
2013-08-06 10:39:00,78.1,69.9,28.60,SE,135,12.7,12.7,76,0.00,,,0.01,WeatherDisplay:10.37,2013-08-06 15:39:00,
2013-08-06 10:44:00,78.8,68.6,28.61,SW,225,13.8,13.8,71,0.00,,,0.01,WeatherDisplay:10.37,2013-08-06 15:44:00,
2013-08-06 10:49:00,79.5,69.3,28.60,SE,135,15.0,15.0,71,0.00,,,0.01,WeatherDisplay:10.37,2013-08-06 15:49:00,
2013-08-06 10:55:00,79.7,68.6,28.60,South,180,12.7,13.0,69,0.00,,,0.01,WeatherDisplay:10.37,2013-08-06 15:55:00,
2013-08-06 11:00:00,80.2,69.1,28.61,South,180,15.0,15.0,69,0.00,,,0.01,WeatherDisplay:10.37,2013-08-06 16:00:00,
2013-08-06 11:05:00,80.2,69.1,28.61,South,180,11.5,11.5,69,0.00,,,0.01,WeatherDisplay:10.37,2013-08-06 16:05:00,
2013-08-06 11:10:00,81.1,70.0,28.61,SW,225,12.7,12.7,69,0.00,,,0.01,WeatherDisplay:10.37,2013-08-06 16:10:00,
2013-08-06 11:16:00,80.6,68.2,28.61,SW,225,16.1,16.1,66,0.00,,,0.01,WeatherDisplay:10.37,2013-08-06 16:16:00,
2013-08-06 11:21:00,80.1,67.7,28.61,South,180,15.0,15.0,66,0.00,,,0.01,WeatherDisplay:10.37,2013-08-06 16:21:00,
2013-08-06 11:26:00,81.1,68.7,28.62,SW,225,13.8,13.8,66,0.00,,,0.01,WeatherDisplay:10.37,2013-08-06 16:26:00,
2013-08-06 11:31:00,82.0,69.1,28.62,SSW,202,12.7,12.7,65,0.00,,,0.01,WeatherDisplay:10.37,2013-08-06 16:31:00,
2013-08-06 11:36:00,82.6,69.6,28.63,SW,225,9.2,9.2,65,0.00,,,0.01,WeatherDisplay:10.37,2013-08-06 16:36:00,
2013-08-06 11:41:00,82.8,70.2,28.64,South,180,5.8,5.8,66,0.00,,,0.01,WeatherDisplay:10.37,2013-08-06 16:41:00,
2013-08-06 11:46:00,83.3,71.2,28.64,NW,315,2.3,2.3,67,0.00,,,0.01,WeatherDisplay:10.37,2013-08-06 16:46:00,
2013-08-06 11:51:00,84.6,71.9,28.64,SW,225,1.2,1.2,66,0.00,,,0.01,WeatherDisplay:10.37,2013-08-06 16:51:00,
2013-08-06 11:53:00,84.9,72.7,28.64,NW,315,2.3,2.3,67,0.00,,,0.01,WeatherDisplay:10.37,2013-08-06 16:53:00,
2013-08-06 11:58:00,85.8,71.8,28.64,East,90,1.2,1.2,63,0.00,,,0.01,WeatherDisplay:10.37,2013-08-06 16:58:00,
2013-08-06 12:03:00,85.8,70.8,28.64,SE,135,2.3,2.3,61,0.00,,,0.01,WeatherDisplay:10.37,2013-08-06 17:03:00,
2013-08-06 12:09:00,84.4,69.9,28.65,SW,225,2.3,0.0,62,0.00,,,0.01,WeatherDisplay:10.37,2013-08-06 17:09:00,
2013-08-06 12:14:00,84.2,69.8,28.65,West,270,4.6,4.6,62,0.00,,,0.01,WeatherDisplay:10.37,2013-08-06 17:14:00,
2013-08-06 12:19:00,83.8,69.9,28.65,North,0,2.3,2.3,63,0.00,,,0.01,WeatherDisplay:10.37,2013-08-06 17:19:00,
2013-08-06 12:24:00,84.9,70.4,28.64,South,180,3.5,3.5,62,0.00,,,0.01,WeatherDisplay:10.37,2013-08-06 17:24:00,
2013-08-06 12:30:00,86.5,71.5,28.65,West,275,1.0,5.0,61,0.00,,,0.01,WeatherDisplay:10.37,2013-08-06 17:30:00,
2013-08-06 12:31:00,86.9,70.3,28.65,NW,315,3.5,3.5,58,0.00,,,0.01,WeatherDisplay:10.37,2013-08-06 17:31:00,
2013-08-06 12:36:00,87.4,69.8,28.65,SW,225,5.8,5.8,56,0.00,,,0.01,WeatherDisplay:10.37,2013-08-06 17:36:00,
2013-08-06 12:41:00,87.6,67.8,28.65,North,0,5.8,5.8,52,0.00,,,0.01,WeatherDisplay:10.37,2013-08-06 17:41:00,
2013-08-06 12:46:00,88.0,69.8,28.65,South,180,2.3,2.3,55,0.00,,,0.01,WeatherDisplay:10.37,2013-08-06 17:46:00,
2013-08-06 12:51:00,88.0,69.8,28.65,North,0,3.5,3.5,55,0.00,,,0.01,WeatherDisplay:10.37,2013-08-06 17:51:00,
2013-08-06 12:56:00,88.2,67.8,28.65,NW,315,3.5,3.5,51,0.00,,,0.01,WeatherDisplay:10.37,2013-08-06 17:56:00,
2013-08-06 13:02:00,88.7,68.2,28.65,South,180,5.8,5.8,51,0.00,,,0.01,WeatherDisplay:10.37,2013-08-06 18:02:00,
2013-08-06 13:07:00,88.7,68.2,28.65,South,180,5.8,5.8,51,0.00,,,0.01,WeatherDisplay:10.37,2013-08-06 18:07:00,
2013-08-06 13:12:00,88.2,70.0,28.65,SW,225,7.6,7.6,55,0.00,,,0.01,WeatherDisplay:10.37,2013-08-06 18:12:00,
2013-08-06 13:17:00,87.6,70.5,28.65,SW,225,4.6,4.6,57,0.00,,,0.01,WeatherDisplay:10.37,2013-08-06 18:17:00,
2013-08-06 13:22:00,88.0,68.1,28.65,NW,315,4.6,4.6,52,0.00,,,0.01,WeatherDisplay:10.37,2013-08-06 18:22:00,
2013-08-06 13:28:00,87.8,69.1,28.65,NW,315,3.5,3.5,54,0.00,,,0.01,WeatherDisplay:10.37,2013-08-06 18:28:00,
2013-08-06 13:33:00,88.5,68.6,28.65,NW,315,4.6,4.6,52,0.00,,,0.01,WeatherDisplay:10.37,2013-08-06 18:33:00,
2013-08-06 13:38:00,88.5,69.2,28.65,SW,225,4.6,4.6,53,0.00,,,0.01,WeatherDisplay:10.37,2013-08-06 18:38:00,
2013-08-06 13:43:00,89.1,70.8,28.65,NW,315,3.5,3.5,55,0.00,,,0.01,WeatherDisplay:10.37,2013-08-06 18:43:00,
2013-08-06 13:48:00,89.2,68.7,28.65,SW,225,4.6,4.6,51,0.00,,,0.01,WeatherDisplay:10.37,2013-08-06 18:48:00,
2013-08-06 13:54:00,88.2,68.9,28.65,SW,225,5.8,5.8,53,0.00,,,0.01,WeatherDisplay:10.37,2013-08-06 18:54:00,
2013-08-06 13:59:00,87.4,68.8,28.65,NW,315,8.1,8.1,54,0.00,,,0.01,WeatherDisplay:10.37,2013-08-06 18:59:00,
2013-08-06 14:04:00,87.4,68.8,28.65,South,180,4.6,4.6,54,0.00,,,0.01,WeatherDisplay:10.37,2013-08-06 19:04:00,
2013-08-06 14:09:00,87.8,68.0,28.65,South,180,4.6,4.6,52,0.00,,,0.01,WeatherDisplay:10.37,2013-08-06 19:09:00,
2013-08-06 14:14:00,88.2,67.8,28.65,SW,225,3.5,3.5,51,0.00,,,0.01,WeatherDisplay:10.37,2013-08-06 19:14:00,
2013-08-06 14:20:00,89.2,70.4,28.65,NW,315,3.5,3.5,54,0.00,,,0.01,WeatherDisplay:10.37,2013-08-06 19:20:00,
2013-08-06 14:25:00,89.8,68.7,28.65,NW,315,5.8,5.8,50,0.00,,,0.01,WeatherDisplay:10.37,2013-08-06 19:25:00,
2013-08-06 14:30:00,89.8,69.2,28.65,South,180,5.8,5.8,51,0.00,,,0.01,WeatherDisplay:10.37,2013-08-06 19:30:00,
2013-08-06 14:35:00,90.0,69.4,28.65,SW,225,3.5,0.0,51,0.00,,,0.01,WeatherDisplay:10.37,2013-08-06 19:35:00,
2013-08-06 14:40:00,89.2,68.7,28.65,SW,225,5.8,5.8,51,0.00,,,0.01,WeatherDisplay:10.37,2013-08-06 19:40:00,
2013-08-06 14:45:00,89.4,70.6,28.65,SW,225,4.6,4.6,54,0.00,,,0.01,WeatherDisplay:10.37,2013-08-06 19:45:00,
2013-08-06 14:50:00,89.4,70.0,28.64,North,0,4.6,4.6,53,0.00,,,0.01,WeatherDisplay:10.37,2013-08-06 19:50:00,
2013-08-06 14:56:00,90.0,70.5,28.64,SW,225,3.5,3.8,53,0.00,,,0.01,WeatherDisplay:10.37,2013-08-06 19:56:00,
2013-08-06 15:01:00,89.6,70.2,28.64,SW,225,3.5,3.5,53,0.00,,,0.01,WeatherDisplay:10.37,2013-08-06 20:01:00,
2013-08-06 15:06:00,89.6,70.2,28.65,SW,225,3.5,3.5,53,0.00,,,0.01,WeatherDisplay:10.37,2013-08-06 20:06:00,
2013-08-06 15:11:00,89.2,69.9,28.64,SW,225,4.6,4.6,53,0.00,,,0.01,WeatherDisplay:10.37,2013-08-06 20:11:00,
2013-08-06 15:16:00,89.4,68.9,28.65,NW,315,1.2,1.6,51,0.00,,,0.01,WeatherDisplay:10.37,2013-08-06 20:16:00,
2013-08-06 15:21:00,90.0,69.4,28.65,NE,45,2.3,2.3,51,0.00,,,0.01,WeatherDisplay:10.37,2013-08-06 20:21:00,
2013-08-06 15:26:00,90.9,69.7,28.64,NW,315,3.5,3.5,50,0.00,,,0.01,WeatherDisplay:10.37,2013-08-06 20:26:00,
2013-08-06 15:27:00,91.0,69.8,28.64,North,0,3.5,0.0,50,0.00,,,0.01,WeatherDisplay:10.37,2013-08-06 20:27:00,
2013-08-06 15:32:00,91.4,70.1,28.65,West,270,3.5,3.5,50,0.00,,,0.01,WeatherDisplay:10.37,2013-08-06 20:32:00,
2013-08-06 15:37:00,91.9,71.2,28.64,SW,225,3.5,3.5,51,0.00,,,0.01,WeatherDisplay:10.37,2013-08-06 20:37:00,
2013-08-06 15:42:00,91.8,69.9,28.64,SE,135,2.3,2.3,49,0.00,,,0.01,WeatherDisplay:10.37,2013-08-06 20:42:00,
2013-08-06 15:47:00,91.6,70.3,28.64,West,270,4.6,0.0,50,0.00,,,0.01,WeatherDisplay:10.37,2013-08-06 20:47:00,
2013-08-06 15:53:00,91.2,69.4,28.64,South,180,3.5,3.5,49,0.00,,,0.01,WeatherDisplay:10.37,2013-08-06 20:53:00,
2013-08-06 15:58:00,91.6,70.9,28.64,NW,315,3.5,3.5,51,0.00,,,0.01,WeatherDisplay:10.37,2013-08-06 20:58:00,
2013-08-06 16:03:00,91.6,71.5,28.64,NW,315,3.5,3.5,52,0.00,,,0.01,WeatherDisplay:10.37,2013-08-06 21:03:00,
2013-08-06 16:08:00,91.9,70.0,28.64,NW,315,3.5,3.5,49,0.00,,,0.01,WeatherDisplay:10.37,2013-08-06 21:08:00,
2013-08-06 16:13:00,91.6,70.9,28.64,North,0,3.5,3.5,51,0.00,,,0.01,WeatherDisplay:10.37,2013-08-06 21:13:00,
2013-08-06 16:18:00,91.9,71.2,28.64,SW,225,5.8,5.8,51,0.00,,,0.01,WeatherDisplay:10.37,2013-08-06 21:18:00,
2013-08-06 16:23:00,91.6,71.5,28.64,South,180,3.5,3.5,52,0.00,,,0.01,WeatherDisplay:10.37,2013-08-06 21:23:00,
2013-08-06 16:29:00,91.4,72.4,28.64,SW,225,4.6,4.6,54,0.00,,,0.01,WeatherDisplay:10.37,2013-08-06 21:29:00,
2013-08-06 16:34:00,90.3,70.9,28.64,West,270,5.8,5.8,53,0.00,,,0.01,WeatherDisplay:10.37,2013-08-06 21:34:00,
2013-08-06 16:39:00,89.8,70.4,28.65,SW,225,4.6,4.6,53,0.00,,,0.01,WeatherDisplay:10.37,2013-08-06 21:39:00,
2013-08-06 16:44:00,90.3,70.9,28.64,SW,225,4.6,4.6,53,0.00,,,0.01,WeatherDisplay:10.37,2013-08-06 21:44:00,
2013-08-06 16:50:00,90.9,70.8,28.64,West,270,2.3,2.3,52,0.00,,,0.01,WeatherDisplay:10.37,2013-08-06 21:50:00,
2013-08-06 16:55:00,92.1,70.8,28.64,NW,315,3.5,3.5,50,0.00,,,0.01,WeatherDisplay:10.37,2013-08-06 21:55:00,
2013-08-06 17:00:00,92.3,71.0,28.64,West,270,3.5,3.5,50,0.00,,,0.01,WeatherDisplay:10.37,2013-08-06 22:00:00,
2013-08-06 17:05:00,92.5,70.5,28.64,West,270,3.5,3.5,49,0.00,,,0.01,WeatherDisplay:10.37,2013-08-06 22:05:00,
2013-08-06 17:10:00,92.8,70.9,28.64,SW,225,3.5,3.5,49,0.00,,,0.01,WeatherDisplay:10.37,2013-08-06 22:10:00,
2013-08-06 17:15:00,93.0,70.4,28.64,SW,225,3.5,0.0,48,0.00,,,0.01,WeatherDisplay:10.37,2013-08-06 22:15:00,
2013-08-06 17:20:00,94.1,72.0,28.64,NW,315,1.2,1.2,49,0.00,,,0.01,WeatherDisplay:10.37,2013-08-06 22:20:00,
2013-08-06 17:26:00,93.4,70.8,28.64,West,270,2.3,2.3,48,0.00,,,0.01,WeatherDisplay:10.37,2013-08-06 22:26:00,
2013-08-06 17:31:00,94.1,70.2,28.64,North,0,3.5,3.5,46,0.00,,,0.01,WeatherDisplay:10.37,2013-08-06 22:31:00,
2013-08-06 17:36:00,93.9,70.6,28.64,West,270,3.5,3.5,47,0.00,,,0.01,WeatherDisplay:10.37,2013-08-06 22:36:00,
2013-08-06 17:41:00,94.8,71.4,28.63,West,270,2.3,2.3,47,0.00,,,0.01,WeatherDisplay:10.37,2013-08-06 22:41:00,
2013-08-06 17:46:00,94.5,71.1,28.63,North,0,3.1,3.1,47,0.00,,,0.01,WeatherDisplay:10.37,2013-08-06 22:46:00,
2013-08-06 17:51:00,93.9,72.5,28.64,NW,315,2.3,2.3,50,0.00,,,0.01,WeatherDisplay:10.37,2013-08-06 22:51:00,
2013-08-06 17:57:00,93.7,71.7,28.64,NW,315,3.5,3.5,49,0.00,,,0.01,WeatherDisplay:10.37,2013-08-06 22:57:00,
2013-08-06 18:02:00,93.7,72.3,28.63,North,0,2.3,2.3,50,0.00,,,0.01,WeatherDisplay:10.37,2013-08-06 23:02:00,
2013-08-06 18:07:00,93.6,72.7,28.63,NW,315,3.5,3.5,51,0.00,,,0.01,WeatherDisplay:10.37,2013-08-06 23:07:00,
2013-08-06 18:12:00,93.0,72.8,28.63,NW,315,3.5,3.5,52,0.00,,,0.01,WeatherDisplay:10.37,2013-08-06 23:12:00,
2013-08-06 18:17:00,93.4,73.1,28.63,NW,315,2.3,2.3,52,0.00,,,0.01,WeatherDisplay:10.37,2013-08-06 23:17:00,
2013-08-06 18:23:00,93.2,71.8,28.63,West,270,2.3,2.3,50,0.00,,,0.01,WeatherDisplay:10.37,2013-08-06 23:23:00,
2013-08-06 18:28:00,94.5,72.9,28.63,SW,225,1.2,1.2,50,0.00,,,0.01,WeatherDisplay:10.37,2013-08-06 23:28:00,
2013-08-06 18:33:00,94.6,71.9,28.63,NW,315,2.3,2.3,48,0.00,,,0.01,WeatherDisplay:10.37,2013-08-06 23:33:00,
2013-08-06 18:38:00,94.8,72.1,28.63,NW,315,1.2,1.2,48,0.00,,,0.01,WeatherDisplay:10.37,2013-08-06 23:38:00,
2013-08-06 18:43:00,94.6,72.5,28.63,NW,315,1.2,0.0,49,0.00,,,0.01,WeatherDisplay:10.37,2013-08-06 23:43:00,
2013-08-06 18:49:00,94.6,73.1,28.63,NW,315,1.2,0.0,50,0.00,,,0.01,WeatherDisplay:10.37,2013-08-06 23:49:00,
2013-08-06 18:54:00,93.9,72.5,28.63,NW,315,2.3,2.3,50,0.00,,,0.01,WeatherDisplay:10.37,2013-08-06 23:54:00,
2013-08-06 18:59:00,92.7,72.5,28.62,NW,315,2.3,2.3,52,0.00,,,0.01,WeatherDisplay:10.37,2013-08-06 23:59:00,
2013-08-06 19:05:00,91.9,72.9,28.63,NW,315,2.3,2.3,54,0.00,,,0.01,WeatherDisplay:10.37,2013-08-07 00:05:00,
2013-08-06 19:10:00,91.0,73.7,28.63,NW,315,2.3,2.3,57,0.00,,,0.01,WeatherDisplay:10.37,2013-08-07 00:10:00,
2013-08-06 19:15:00,90.1,73.4,28.63,NW,315,2.3,2.3,58,0.00,,,0.01,WeatherDisplay:10.37,2013-08-07 00:15:00,
2013-08-06 19:20:00,89.4,73.2,28.63,NW,315,2.3,2.3,59,0.00,,,0.01,WeatherDisplay:10.37,2013-08-07 00:20:00,
2013-08-06 19:25:00,87.8,72.7,28.63,NW,315,2.3,2.3,61,0.00,,,0.01,WeatherDisplay:10.37,2013-08-07 00:25:00,
2013-08-06 19:31:00,86.4,73.2,28.63,NW,315,2.3,2.3,65,0.00,,,0.01,WeatherDisplay:10.37,2013-08-07 00:31:00,
2013-08-06 19:36:00,84.7,72.6,28.63,NW,315,2.3,0.0,67,0.00,,,0.01,WeatherDisplay:10.37,2013-08-07 00:36:00,
2013-08-06 19:41:00,84.2,72.5,28.63,NW,315,0.0,0.0,68,0.00,,,0.01,WeatherDisplay:10.37,2013-08-07 00:41:00,
2013-08-06 19:46:00,83.3,72.1,28.63,NW,315,1.2,0.0,69,0.00,,,0.01,WeatherDisplay:10.37,2013-08-07 00:46:00,
2013-08-06 19:51:00,82.2,71.5,28.63,NW,315,1.2,0.0,70,0.00,,,0.01,WeatherDisplay:10.37,2013-08-07 00:51:00,
2013-08-06 19:56:00,81.9,71.9,28.63,NW,315,0.0,0.0,72,0.00,,,0.01,WeatherDisplay:10.37,2013-08-07 00:56:00,
2013-08-06 20:02:00,81.7,72.2,28.63,NW,315,0.0,0.0,73,0.00,,,0.01,WeatherDisplay:10.37,2013-08-07 01:02:00,
2013-08-06 20:07:00,81.1,71.7,28.63,NW,315,1.2,0.0,73,0.00,,,0.01,WeatherDisplay:10.37,2013-08-07 01:07:00,
2013-08-06 20:12:00,80.8,71.3,28.63,NW,315,0.0,0.0,73,0.00,,,0.01,WeatherDisplay:10.37,2013-08-07 01:12:00,
2013-08-06 20:17:00,80.8,72.5,28.63,NW,315,0.0,0.0,76,0.00,,,0.01,WeatherDisplay:10.37,2013-08-07 01:17:00,
2013-08-06 20:22:00,80.4,72.2,28.63,NW,315,0.0,0.0,76,0.00,,,0.01,WeatherDisplay:10.37,2013-08-07 01:22:00,
2013-08-06 20:27:00,79.9,71.6,28.64,NW,315,0.0,0.0,76,0.00,,,0.01,WeatherDisplay:10.37,2013-08-07 01:27:00,
2013-08-06 20:51:00,77.4,70.0,28.64,NW,315,0.0,0.0,78,0.00,,,0.01,WeatherDisplay:10.37,2013-08-07 01:51:00,
2013-08-06 20:56:00,77.2,70.2,28.65,South,180,0.0,0.0,79,0.00,,,0.01,WeatherDisplay:10.37,2013-08-07 01:56:00,
2013-08-06 21:01:00,76.6,70.0,28.65,North,0,0.0,0.0,80,0.00,,,0.01,WeatherDisplay:10.37,2013-08-07 02:01:00,
2013-08-06 21:07:00,76.1,69.8,28.65,North,0,0.0,0.0,81,0.00,,,0.01,WeatherDisplay:10.37,2013-08-07 02:07:00,
2013-08-06 21:15:00,75.4,69.9,28.65,NE,45,1.2,1.2,83,0.00,,,0.01,WeatherDisplay:10.37,2013-08-07 02:15:00,
2013-08-06 21:20:00,74.7,70.2,28.65,NE,45,2.3,2.3,86,0.00,,,0.01,WeatherDisplay:10.37,2013-08-07 02:20:00,
2013-08-06 21:25:00,74.1,70.0,28.65,East,90,2.3,2.3,87,0.00,,,0.01,WeatherDisplay:10.37,2013-08-07 02:25:00,
2013-08-06 21:30:00,73.6,70.1,28.66,NE,45,1.2,1.2,89,0.00,,,0.01,WeatherDisplay:10.37,2013-08-07 02:30:00,
2013-08-06 21:35:00,73.6,70.1,28.66,NE,45,1.2,1.2,89,0.00,,,0.01,WeatherDisplay:10.37,2013-08-07 02:35:00,
2013-08-06 21:41:00,72.9,69.8,28.66,NE,45,1.2,0.0,90,0.00,,,0.01,WeatherDisplay:10.37,2013-08-07 02:41:00,
2013-08-06 21:46:00,72.7,69.9,28.66,NE,45,0.0,0.0,91,0.00,,,0.01,WeatherDisplay:10.37,2013-08-07 02:46:00,
2013-08-06 21:51:00,72.7,69.9,28.66,NE,45,1.2,0.0,91,0.00,,,0.01,WeatherDisplay:10.37,2013-08-07 02:51:00,
2013-08-06 21:56:00,72.5,69.7,28.66,NE,45,0.0,0.0,91,0.00,,,0.01,WeatherDisplay:10.37,2013-08-07 02:56:00,
2013-08-06 22:01:00,72.3,69.5,28.66,NE,45,0.0,0.0,91,0.00,,,0.01,WeatherDisplay:10.37,2013-08-07 03:01:00,
2013-08-06 22:07:00,72.3,69.5,28.67,NE,45,0.0,0.0,91,0.00,,,0.01,WeatherDisplay:10.37,2013-08-07 03:07:00,
2013-08-06 22:12:00,71.8,69.3,28.67,NE,45,0.0,0.0,92,0.00,,,0.01,WeatherDisplay:10.37,2013-08-07 03:12:00,
2013-08-06 22:17:00,71.6,69.2,28.67,NE,45,0.0,0.0,92,0.00,,,0.01,WeatherDisplay:10.37,2013-08-07 03:17:00,
2013-08-06 22:22:00,71.2,68.8,28.67,NE,45,0.0,0.0,92,0.00,,,0.01,WeatherDisplay:10.37,2013-08-07 03:22:00,
2013-08-06 22:27:00,71.1,68.6,28.67,NE,45,0.0,0.0,92,0.00,,,0.01,WeatherDisplay:10.37,2013-08-07 03:27:00,
2013-08-06 22:33:00,70.9,68.4,28.67,NE,45,0.0,0.0,92,0.00,,,0.01,WeatherDisplay:10.37,2013-08-07 03:33:00,
2013-08-06 22:38:00,70.9,68.8,28.67,NE,45,0.0,0.0,93,0.00,,,0.01,WeatherDisplay:10.37,2013-08-07 03:38:00,
2013-08-06 22:43:00,70.7,68.6,28.67,NE,45,0.0,0.0,93,0.00,,,0.01,WeatherDisplay:10.37,2013-08-07 03:43:00,
2013-08-06 22:48:00,70.7,68.6,28.67,NE,45,1.2,0.0,93,0.00,,,0.01,WeatherDisplay:10.37,2013-08-07 03:48:00,
2013-08-06 22:53:00,70.7,68.9,28.67,East,90,1.2,1.2,94,0.00,,,0.01,WeatherDisplay:10.37,2013-08-07 03:53:00,
2013-08-06 22:59:00,70.9,69.1,28.67,South,180,0.0,0.0,94,0.00,,,0.01,WeatherDisplay:10.37,2013-08-07 03:59:00,
2013-08-06 23:01:00,70.9,69.1,28.67,South,180,0.0,0.0,94,0.00,,,0.01,WeatherDisplay:10.37,2013-08-07 04:01:00,
2013-08-06 23:02:00,70.9,69.1,28.67,South,180,0.0,0.0,94,0.00,,,0.01,WeatherDisplay:10.37,2013-08-07 04:02:00,
2013-08-06 23:07:00,70.9,69.1,28.67,South,180,0.0,0.0,94,0.00,,,0.01,WeatherDisplay:10.37,2013-08-07 04:07:00,
2013-08-06 23:12:00,70.7,68.9,28.68,North,0,2.3,0.0,94,0.00,,,0.01,WeatherDisplay:10.37,2013-08-07 04:12:00,
2013-08-06 23:18:00,70.3,68.5,28.68,North,0,0.0,0.0,94,0.00,,,0.01,WeatherDisplay:10.37,2013-08-07 04:18:00,
2013-08-06 23:23:00,70.2,68.7,28.68,SE,135,1.2,0.0,95,0.00,,,0.01,WeatherDisplay:10.37,2013-08-07 04:23:00,
2013-08-06 23:28:00,69.8,68.3,28.68,SE,135,0.0,0.0,95,0.00,,,0.01,WeatherDisplay:10.37,2013-08-07 04:28:00,
2013-08-06 23:33:00,69.4,67.9,28.68,NW,315,1.2,0.0,95,0.00,,,0.01,WeatherDisplay:10.37,2013-08-07 04:33:00,
2013-08-06 23:38:00,69.3,67.8,28.68,NW,315,0.0,0.0,95,0.00,,,0.01,WeatherDisplay:10.37,2013-08-07 04:38:00,
2013-08-06 23:44:00,69.1,67.6,28.68,NW,315,0.0,0.0,95,0.00,,,0.01,WeatherDisplay:10.37,2013-08-07 04:44:00,
2013-08-06 23:49:00,68.9,67.4,28.68,South,180,1.2,0.0,95,0.00,,,0.01,WeatherDisplay:10.37,2013-08-07 04:49:00,
2013-08-06 23:54:00,68.7,67.2,28.68,South,180,0.0,0.0,95,0.00,,,0.01,WeatherDisplay:10.37,2013-08-07 04:54:00,
2013-08-06 23:59:00,68.4,66.9,28.68,South,180,0.0,0.0,95,0.00,,,0.01,WeatherDisplay:10.37,2013-08-07 04:59:00,